Terminal Aerodrome Forecast
Issued by NWS

Home | Current Version | Previous Version | Text Only | Print | Product List | Glossary On
Versions: 1 2 3 4 5 6 7 8 9 10 11 12 13 14 15 16 17 18 19 20
171
FTUS43 KGRR 011136
TAFJXN
TAF
KJXN 011136Z 0112/0212 05004KT 1 1/2SM BR OVC003
     FM011700 03006KT 5SM BR OVC006
     FM012100 04008KT P6SM OVC015
     FM020100 03009KT 3SM -RA BR OVC004=

USA.gov is the U.S. government's official web portal to all federal, state and local government web resources and services.